Time;durP1;ratioP1;P1;durP2;ratioP2;P2;SDS_P1;SDS_P2;PMS_P1;PMS_P2;Temp;Humidity;BMP_temperature;BMP_pressure;BME280_temperature;BME280_humidity;BME280_pressure;Samples;Min_cycle;Max_cycle;Signal;HPM_P1;HPM_P2
2023/11/28 00:00:33;;;;;;;10.55;5.20;;;;;;;6.06;46.69;98496.63;4990350;28;20109;-77
2023/11/28 00:02:59;;;;;;;8.75;4.53;;;;;;;6.01;46.77;98489.16;4958021;28;20473;-75
2023/11/28 00:05:24;;;;;;;8.50;4.93;;;;;;;5.99;46.57;98483.22;4990552;28;20027;-75
2023/11/28 00:07:50;;;;;;;6.97;4.22;;;;;;;5.99;46.27;98490.97;4974052;28;20038;-76
2023/11/28 00:10:15;;;;;;;9.20;4.40;;;;;;;6.02;46.96;98502.94;4990217;28;20497;-76
2023/11/28 00:12:41;;;;;;;8.20;4.20;;;;;;;5.95;46.56;98492.91;4973944;28;20039;-76
2023/11/28 00:15:07;;;;;;;6.55;3.50;;;;;;;6.00;46.65;98497.00;4989908;28;20107;-76
2023/11/28 00:17:32;;;;;;;7.03;3.88;;;;;;;5.95;47.17;98498.09;4973647;28;20478;-76
2023/11/28 00:19:58;;;;;;;6.40;3.30;;;;;;;5.96;47.02;98515.34;4973563;28;20086;-76
2023/11/28 00:22:23;;;;;;;5.88;3.30;;;;;;;5.94;46.69;98504.19;4974192;28;20047;-75
2023/11/28 00:24:48;;;;;;;5.70;3.30;;;;;;;5.94;46.54;98511.13;4956737;28;20257;-75
2023/11/28 00:27:15;;;;;;;6.32;3.38;;;;;;;5.92;46.85;98503.44;4954800;28;20074;-75
2023/11/28 00:29:40;;;;;;;4.18;2.85;;;;;;;5.87;47.26;98504.69;4954197;29;20034;-75
2023/11/28 00:32:06;;;;;;;4.65;2.83;;;;;;;5.88;46.93;98507.19;4954254;29;20046;-76
2023/11/28 00:34:32;;;;;;;4.95;2.80;;;;;;;5.86;47.31;98498.63;4954479;29;20126;-76
2023/11/28 00:36:57;;;;;;;7.10;3.35;;;;;;;5.84;47.16;98503.09;4953977;29;20414;-75
2023/11/28 00:39:23;;;;;;;5.10;2.80;;;;;;;5.81;47.17;98503.28;4954112;29;20059;-75
2023/11/28 00:41:48;;;;;;;4.97;2.63;;;;;;;5.80;46.80;98511.97;4953895;28;20039;-76
2023/11/28 00:44:14;;;;;;;3.92;2.10;;;;;;;5.77;47.04;98515.59;4938632;29;20094;-74
2023/11/28 00:46:40;;;;;;;5.40;2.40;;;;;;;5.76;46.87;98518.28;4937850;29;20047;-75
2023/11/28 00:49:07;;;;;;;4.25;2.33;;;;;;;5.73;47.07;98508.09;4938101;29;20129;-76
2023/11/28 00:51:32;;;;;;;4.20;2.40;;;;;;;5.70;47.06;98497.91;4969901;28;20031;-76
2023/11/28 00:53:58;;;;;;;4.88;2.50;;;;;;;5.64;47.12;98485.34;4976310;28;20049;-75
2023/11/28 00:56:23;;;;;;;3.47;2.17;;;;;;;5.64;46.84;98488.75;4956899;28;20129;-76
2023/11/28 00:58:49;;;;;;;4.13;2.40;;;;;;;5.62;46.74;98485.41;4972753;28;20148;-76
2023/11/28 01:01:14;;;;;;;5.70;2.40;;;;;;;5.60;46.97;98479.50;4973065;28;20035;-77
2023/11/28 01:03:40;;;;;;;3.67;1.98;;;;;;;5.58;47.21;98468.38;4973032;28;20065;-76
2023/11/28 01:06:07;;;;;;;3.50;2.15;;;;;;;5.56;47.64;98460.72;4972554;28;20038;-77
2023/11/28 01:08:34;;;;;;;4.15;2.30;;;;;;;5.54;47.34;98466.94;4973381;28;20117;-77
2023/11/28 01:10:59;;;;;;;3.72;2.00;;;;;;;5.47;47.34;98473.38;4956797;28;20223;-77
2023/11/28 01:13:25;;;;;;;3.20;1.63;;;;;;;5.48;46.99;98483.66;4973060;28;20133;-76
2023/11/28 01:15:50;;;;;;;2.70;1.55;;;;;;;5.47;47.33;98476.81;4972941;28;20038;-77
2023/11/28 01:18:16;;;;;;;3.88;2.03;;;;;;;5.47;47.51;98491.50;4989613;28;20045;-76
2023/11/28 01:20:43;;;;;;;4.70;1.98;;;;;;;5.44;47.09;98495.94;4972959;28;20034;-75
2023/11/28 01:23:09;;;;;;;4.50;1.75;;;;;;;5.42;47.17;98489.19;4972882;28;20061;-76
2023/11/28 01:25:34;;;;;;;2.40;1.50;;;;;;;5.41;47.17;98492.72;4955471;28;20505;-75
2023/11/28 01:28:00;;;;;;;3.50;1.70;;;;;;;5.41;47.88;98474.59;4989444;28;20111;-75
2023/11/28 01:30:25;;;;;;;3.53;1.35;;;;;;;5.39;46.97;98479.88;4956775;28;20093;-75
2023/11/28 01:32:51;;;;;;;4.88;1.60;;;;;;;5.39;47.57;98466.06;4972661;28;20410;-75
2023/11/28 01:35:17;;;;;;;3.65;1.80;;;;;;;5.34;47.07;98457.75;4989348;28;20039;-75
2023/11/28 01:37:42;;;;;;;2.45;1.48;;;;;;;5.38;47.36;98460.06;4956637;28;20065;-76
2023/11/28 01:40:09;;;;;;;2.38;1.48;;;;;;;5.39;47.44;98455.72;4989257;28;20046;-75
2023/11/28 01:42:34;;;;;;;2.20;1.23;;;;;;;5.37;47.77;98448.03;4988580;28;20034;-74
2023/11/28 01:45:00;;;;;;;2.15;1.20;;;;;;;5.42;47.59;98458.13;4988873;28;20050;-76
2023/11/28 01:47:25;;;;;;;2.42;1.55;;;;;;;5.42;47.58;98445.19;4972530;28;20446;-74
2023/11/28 01:49:51;;;;;;;2.60;1.60;;;;;;;5.43;47.26;98442.50;4956468;28;20026;-74
2023/11/28 01:52:16;;;;;;;2.45;1.33;;;;;;;5.41;47.17;98421.06;4988716;28;20035;-75
2023/11/28 01:54:42;;;;;;;1.83;1.30;;;;;;;5.47;47.14;98430.22;4972407;28;20030;-76
2023/11/28 01:57:07;;;;;;;2.42;1.20;;;;;;;5.50;46.75;98427.41;4972576;28;20047;-76
2023/11/28 01:59:33;;;;;;;2.92;1.52;;;;;;;5.52;47.35;98416.97;4986927;28;20034;-74
2023/11/28 02:01:59;;;;;;;3.25;1.20;;;;;;;5.52;47.35;98412.66;4972470;28;20117;-74
2023/11/28 02:04:25;;;;;;;2.35;1.23;;;;;;;5.52;47.10;98407.47;4972082;28;20037;-75
2023/11/28 02:06:50;;;;;;;2.63;1.40;;;;;;;5.57;47.46;98402.84;4988270;28;20470;-74
2023/11/28 02:09:15;;;;;;;2.45;1.10;;;;;;;5.55;47.19;98390.91;4972109;28;20027;-74
2023/11/28 02:11:41;;;;;;;2.70;1.55;;;;;;;5.59;47.23;98398.38;4988363;28;20066;-74
2023/11/28 02:14:06;;;;;;;1.92;1.05;;;;;;;5.61;47.10;98398.28;4988714;28;20031;-74
2023/11/28 02:16:32;;;;;;;1.95;1.10;;;;;;;5.64;46.98;98402.47;4972197;28;20046;-74
2023/11/28 02:18:57;;;;;;;2.33;1.20;;;;;;;5.60;47.19;98394.06;4973980;28;20027;-74
2023/11/28 02:21:23;;;;;;;1.80;1.15;;;;;;;5.65;47.10;98384.25;4992363;28;20113;-74
2023/11/28 02:23:48;;;;;;;2.80;1.25;;;;;;;5.60;46.88;98374.16;4992261;28;20110;-75
2023/11/28 02:26:27;;;;;;;2.45;1.15;;;;;;;5.59;47.16;98377.66;4991968;28;20063;-76
2023/11/28 02:28:56;;;;;;;2.85;1.40;;;;;;;5.62;46.93;98387.84;4953806;28;20113;-74
2023/11/28 02:31:21;;;;;;;2.08;1.08;;;;;;;5.62;46.94;98387.84;4974931;28;20046;-75
2023/11/28 02:33:47;;;;;;;2.72;1.20;;;;;;;5.57;46.72;98382.13;4976475;28;20475;-75
2023/11/28 02:36:14;;;;;;;3.75;1.38;;;;;;;5.60;47.28;98397.47;4960315;28;20043;-75
2023/11/28 02:38:40;;;;;;;2.30;1.30;;;;;;;5.61;47.44;98398.28;4975464;28;20038;-74
2023/11/28 02:41:06;;;;;;;2.35;1.00;;;;;;;5.55;47.04;98383.97;4960388;28;20114;-76
2023/11/28 02:43:31;;;;;;;2.25;1.27;;;;;;;5.58;47.33;98391.56;4976012;28;20560;-74
2023/11/28 02:45:57;;;;;;;3.55;1.20;;;;;;;5.58;47.11;98394.16;4975708;28;20031;-75
2023/11/28 02:48:22;;;;;;;2.10;1.20;;;;;;;5.57;47.43;98389.06;4958422;28;20074;-74
2023/11/28 02:50:48;;;;;;;3.03;1.30;;;;;;;5.56;47.04;98382.22;4975797;28;20042;-74
2023/11/28 02:53:14;;;;;;;1.92;1.13;;;;;;;5.57;47.22;98386.47;4975594;28;20027;-74
2023/11/28 02:55:39;;;;;;;2.35;1.20;;;;;;;5.54;47.53;98377.13;4975499;28;20050;-74
2023/11/28 02:58:05;;;;;;;2.17;1.10;;;;;;;5.55;47.62;98381.41;4975599;28;20030;-76
2023/11/28 03:00:30;;;;;;;1.80;1.00;;;;;;;5.56;47.43;98379.63;4959420;28;20031;-75
2023/11/28 03:02:56;;;;;;;3.25;1.42;;;;;;;5.51;47.58;98371.31;4975526;28;20031;-75
2023/11/28 03:05:21;;;;;;;1.90;0.90;;;;;;;5.53;47.63;98364.28;4975332;28;20089;-75
2023/11/28 03:07:46;;;;;;;1.90;1.10;;;;;;;5.57;47.16;98371.75;4991758;28;20039;-74
2023/11/28 03:10:12;;;;;;;2.63;1.23;;;;;;;5.57;47.58;98355.41;4976286;28;20391;-75
2023/11/28 03:12:37;;;;;;;1.75;1.00;;;;;;;5.55;47.52;98359.81;4991766;28;20062;-75
2023/11/28 03:15:03;;;;;;;2.92;1.38;;;;;;;5.60;47.47;98352.63;4991388;28;20031;-74
2023/11/28 03:17:29;;;;;;;1.98;1.02;;;;;;;5.60;47.76;98366.41;4975399;28;20035;-75
2023/11/28 03:19:54;;;;;;;1.30;0.90;;;;;;;5.61;47.78;98360.31;4971971;28;20063;-74
2023/11/28 03:22:20;;;;;;;2.25;1.10;;;;;;;5.61;47.40;98355.13;4991018;28;20120;-74
2023/11/28 03:24:46;;;;;;;1.75;1.10;;;;;;;5.59;47.33;98349.19;4974698;28;20038;-75
2023/11/28 03:27:13;;;;;;;2.85;1.30;;;;;;;5.66;47.44;98349.66;4974479;28;20046;-74
2023/11/28 03:29:38;;;;;;;1.73;1.10;;;;;;;5.66;47.13;98338.44;4958457;28;20462;-75
2023/11/28 03:32:04;;;;;;;2.13;1.02;;;;;;;5.64;47.31;98329.97;4990669;28;20487;-75
2023/11/28 03:34:30;;;;;;;2.75;1.35;;;;;;;5.69;47.57;98341.66;4990741;28;20052;-75
2023/11/28 03:36:57;;;;;;;2.47;1.05;;;;;;;5.70;47.62;98339.94;4974372;28;20035;-74
2023/11/28 03:39:23;;;;;;;2.22;1.33;;;;;;;5.71;47.55;98339.00;4974219;28;20038;-73
2023/11/28 03:41:48;;;;;;;2.78;1.40;;;;;;;5.72;47.43;98332.88;4958202;28;20038;-75
2023/11/28 03:44:14;;;;;;;2.40;1.10;;;;;;;5.71;47.46;98320.84;4958323;28;20030;-74
2023/11/28 03:46:40;;;;;;;1.95;1.20;;;;;;;5.72;47.47;98314.75;4974381;28;20105;-74
2023/11/28 03:49:06;;;;;;;2.60;1.35;;;;;;;5.67;47.61;98309.06;4974518;28;20019;-75
2023/11/28 03:51:32;;;;;;;2.17;1.25;;;;;;;5.75;47.63;98309.38;4990473;28;20041;-74
2023/11/28 03:53:57;;;;;;;1.95;1.20;;;;;;;5.74;47.67;98290.44;4974954;28;20039;-76
2023/11/28 03:56:23;;;;;;;2.88;1.40;;;;;;;5.74;47.39;98298.22;4957978;28;20038;-74
2023/11/28 03:58:48;;;;;;;2.80;1.15;;;;;;;5.79;47.52;98301.31;4966061;28;20159;-74
2023/11/28 04:01:14;;;;;;;2.35;1.30;;;;;;;5.77;47.50;98285.06;4971295;28;20062;-75
2023/11/28 04:03:40;;;;;;;2.78;1.50;;;;;;;5.82;47.37;98297.72;4970778;28;20047;-76
2023/11/28 04:06:06;;;;;;;2.20;1.20;;;;;;;5.83;47.54;98291.59;4940805;29;20031;-76
2023/11/28 04:08:31;;;;;;;3.03;1.40;;;;;;;5.81;47.76;98283.09;4954945;28;20133;-75
2023/11/28 04:10:57;;;;;;;2.13;1.23;;;;;;;5.85;47.75;98279.41;4955694;28;20050;-75
2023/11/28 04:13:22;;;;;;;1.85;1.30;;;;;;;5.87;47.49;98277.53;4954660;28;20450;-75
2023/11/28 04:15:48;;;;;;;3.00;1.60;;;;;;;5.89;47.71;98269.66;4954759;28;20459;-74
2023/11/28 04:18:15;;;;;;;3.72;1.55;;;;;;;5.84;48.10;98262.19;4954474;28;20530;-74
2023/11/28 04:20:40;;;;;;;3.33;1.83;;;;;;;5.84;47.35;98269.97;4954478;28;20086;-74
2023/11/28 04:23:06;;;;;;;3.33;1.50;;;;;;;5.85;47.57;98263.84;4954701;28;20043;-76
2023/11/28 04:25:32;;;;;;;3.58;1.90;;;;;;;5.90;47.61;98273.88;4954463;28;20075;-73
2023/11/28 04:27:57;;;;;;;5.65;2.80;;;;;;;5.89;47.92;98273.06;4954372;28;20047;-76
2023/11/28 04:30:23;;;;;;;5.72;3.03;;;;;;;5.86;47.54;98264.69;4957941;28;20030;-76
2023/11/28 04:32:48;;;;;;;6.65;3.55;;;;;;;5.86;47.60;98260.31;4985162;28;20446;-75
2023/11/28 04:35:14;;;;;;;6.78;3.72;;;;;;;5.86;47.42;98265.50;4973214;28;20487;-75
2023/11/28 04:37:40;;;;;;;7.63;4.30;;;;;;;5.88;47.96;98271.44;4973693;28;20043;-76
2023/11/28 04:40:06;;;;;;;8.25;4.53;;;;;;;5.87;47.52;98266.34;4958087;28;20510;-75
2023/11/28 04:42:32;;;;;;;7.78;4.40;;;;;;;5.82;48.14;98253.69;4973242;28;20031;-75
2023/11/28 04:44:57;;;;;;;8.40;4.18;;;;;;;5.86;47.81;98259.50;4973550;28;20050;-75
2023/11/28 04:47:23;;;;;;;7.65;4.40;;;;;;;5.82;48.03;98251.09;4957502;28;20039;-81
2023/11/28 04:49:48;;;;;;;7.78;4.40;;;;;;;5.85;47.96;98250.06;4973844;28;20479;-83
2023/11/28 04:52:14;;;;;;;7.53;4.00;;;;;;;5.90;54.46;98264.38;4957496;28;20042;-76
2023/11/28 04:54:39;;;;;;;8.95;3.70;;;;;;;5.89;51.27;98262.72;4957418;28;20042;-75
2023/11/28 04:57:05;;;;;;;5.53;3.53;;;;;;;5.92;51.42;98266.88;4973486;28;20113;-78
2023/11/28 04:59:30;;;;;;;6.65;3.63;;;;;;;5.91;51.12;98255.66;4989556;28;20105;-77
2023/11/28 05:01:56;;;;;;;6.82;4.00;;;;;;;6.04;56.72;98252.31;4971507;28;20030;-78
2023/11/28 05:04:21;;;;;;;11.50;5.63;;;;;;;6.08;57.00;98243.41;4972240;28;20498;-77
2023/11/28 05:06:47;;;;;;;12.65;6.10;;;;;;;6.07;55.72;98234.81;4979227;28;20468;-77
2023/11/28 05:09:17;;;;;;;14.43;5.90;;;;;;;6.07;55.55;98226.19;4955406;28;20070;-76
2023/11/28 05:11:43;;;;;;;13.00;6.45;;;;;;;6.03;54.82;98220.41;4970104;28;20061;-76
2023/11/28 05:14:08;;;;;;;14.90;7.03;;;;;;;6.03;54.08;98219.56;4955128;28;20038;-71
2023/11/28 05:16:34;;;;;;;11.55;6.57;;;;;;;6.02;54.10;98233.44;4956035;29;20035;-75
2023/11/28 05:18:59;;;;;;;13.18;6.72;;;;;;;6.00;53.53;98230.97;4937720;29;20127;-75
2023/11/28 05:21:25;;;;;;;12.07;5.95;;;;;;;6.00;53.34;98241.31;4954741;28;20039;-79
2023/11/28 05:23:50;;;;;;;10.93;6.20;;;;;;;5.99;53.12;98231.88;4969254;28;20034;-77
2023/11/28 05:26:16;;;;;;;11.50;6.00;;;;;;;5.97;52.51;98229.38;4953689;29;20059;-78
2023/11/28 05:28:41;;;;;;;13.02;6.10;;;;;;;5.97;52.67;98226.78;4953818;29;20034;-78
2023/11/28 05:31:07;;;;;;;9.60;4.97;;;;;;;5.91;52.07;98219.38;4937392;29;20479;-78
2023/11/28 05:33:33;;;;;;;12.10;5.60;;;;;;;5.96;52.01;98229.44;4969617;28;20031;-79
2023/11/28 05:35:58;;;;;;;9.13;5.18;;;;;;;5.90;51.99;98202.22;4957815;28;20110;-79
2023/11/28 05:38:24;;;;;;;8.65;5.03;;;;;;;5.96;51.71;98209.59;4969406;28;20089;-84
2023/11/28 05:40:49;;;;;;;8.90;4.72;;;;;;;5.97;51.54;98206.06;4969360;28;20498;-80
2023/11/28 05:43:14;;;;;;;8.68;4.70;;;;;;;5.98;51.79;98205.16;4954117;28;20035;-79
2023/11/28 05:45:40;;;;;;;8.55;4.30;;;;;;;6.00;50.76;98204.22;4969519;28;20039;-77
2023/11/28 05:48:06;;;;;;;7.07;4.32;;;;;;;6.01;50.73;98206.72;4937554;29;20047;-78
2023/11/28 05:50:31;;;;;;;7.78;4.07;;;;;;;6.05;50.53;98204.75;4969678;28;20170;-79
2023/11/28 05:52:57;;;;;;;6.10;4.00;;;;;;;6.06;51.07;98198.66;4952891;28;20027;-80
2023/11/28 05:55:22;;;;;;;7.47;4.40;;;;;;;6.14;50.60;98201.56;4953503;29;20039;-79
2023/11/28 05:57:51;;;;;;;5.78;3.67;;;;;;;6.20;50.03;98208.91;4953540;29;20487;-79
2023/11/28 06:00:18;;;;;;;5.93;3.55;;;;;;;6.27;49.33;98196.38;4953546;29;20073;-79
2023/11/28 06:02:44;;;;;;;6.28;3.78;;;;;;;6.29;49.50;98186.72;4937302;29;20031;-79
2023/11/28 06:05:10;;;;;;;6.05;3.47;;;;;;;6.44;48.89;98192.66;4969275;28;20102;-79
2023/11/28 06:07:36;;;;;;;7.18;3.67;;;;;;;6.50;49.05;98182.69;4954431;28;20048;-79
2023/11/28 06:10:04;;;;;;;6.75;3.53;;;;;;;6.60;48.65;98174.28;4953570;28;20479;-79
2023/11/28 06:12:29;;;;;;;5.88;3.05;;;;;;;6.73;48.56;98184.63;4968925;28;20031;-79
2023/11/28 06:14:54;;;;;;;5.18;3.10;;;;;;;6.80;47.89;98178.91;4970060;28;20392;-79
2023/11/28 06:17:20;;;;;;;5.78;3.30;;;;;;;6.97;47.54;98184.66;4969502;28;20558;-79
2023/11/28 06:19:45;;;;;;;6.50;2.72;;;;;;;7.05;47.68;98172.81;4971055;28;20069;-78
2023/11/28 06:22:11;;;;;;;4.88;2.75;;;;;;;7.44;46.62;98164.88;4972764;28;20039;-80
2023/11/28 06:24:37;;;;;;;5.05;2.70;;;;;;;8.16;45.42;98158.72;4988618;28;20074;-78
2023/11/28 06:27:06;;;;;;;4.68;2.97;;;;;;;8.95;43.74;98165.72;4971960;28;20073;-80
2023/11/28 06:29:34;;;;;;;5.13;2.55;;;;;;;10.88;40.35;98157.72;4956335;28;20529;-79
2023/11/28 06:32:00;;;;;;;4.88;2.67;;;;;;;11.96;38.21;98151.63;4988924;28;20077;-79
2023/11/28 06:34:26;;;;;;;5.25;2.50;;;;;;;12.64;36.70;98146.19;4972829;28;20062;-81
2023/11/28 06:36:51;;;;;;;4.47;2.50;;;;;;;13.72;35.21;98138.47;4988326;28;20533;-78
2023/11/28 06:39:18;;;;;;;4.80;2.40;;;;;;;15.26;32.88;98142.22;4987861;28;20027;-79
2023/11/28 06:41:45;;;;;;;3.40;2.22;;;;;;;16.69;31.36;98136.53;4953552;28;20043;-76
2023/11/28 06:44:11;;;;;;;5.18;2.10;;;;;;;17.96;29.68;98123.06;4937019;28;20043;-75
2023/11/28 06:46:37;;;;;;;3.67;2.10;;;;;;;18.80;28.53;98107.78;4953307;29;20045;-77
2023/11/28 06:49:03;;;;;;;3.85;1.85;;;;;;;19.35;28.25;98115.28;4952884;29;20118;-78
2023/11/28 06:51:28;;;;;;;4.80;1.88;;;;;;;19.08;30.27;98095.69;4957361;28;20440;-77
2023/11/28 06:53:54;;;;;;;5.40;2.30;;;;;;;18.73;30.38;98108.69;4960152;28;20066;-75
2023/11/28 06:56:19;;;;;;;6.82;2.80;;;;;;;18.80;30.13;98109.56;4943674;28;20098;-78
2023/11/28 06:58:45;;;;;;;5.43;3.33;;;;;;;18.99;29.80;98113.47;4952939;28;20106;-76
2023/11/28 07:01:11;;;;;;;7.57;4.60;;;;;;;18.71;29.75;98116.00;4952876;29;20039;-76
2023/11/28 07:03:36;;;;;;;8.90;5.55;;;;;;;18.29;29.96;98114.81;4969194;28;20487;-77
2023/11/28 07:06:02;;;;;;;9.63;5.57;;;;;;;17.93;30.10;98095.19;4958964;28;20042;-76
2023/11/28 07:08:28;;;;;;;8.52;5.70;;;;;;;17.56;30.45;98103.91;4974558;28;20026;-78
2023/11/28 07:10:53;;;;;;;8.90;4.47;;;;;;;17.35;33.35;98103.56;4976363;28;20093;-76
2023/11/28 07:13:19;;;;;;;12.77;5.15;;;;;;;17.22;33.12;98103.34;4961171;28;20027;-76
2023/11/28 07:15:45;;;;;;;5.80;3.75;;;;;;;17.06;33.47;98106.88;4956053;29;20039;-80
2023/11/28 07:18:15;;;;;;;4.65;2.72;;;;;;;17.08;36.36;98097.00;4940416;28;20085;-76
2023/11/28 07:20:41;;;;;;;8.35;2.75;;;;;;;17.10;35.57;98105.53;4955882;29;20373;-74
2023/11/28 07:23:06;;;;;;;7.15;2.88;;;;;;;17.12;34.66;98100.91;4964956;28;20047;-75
2023/11/28 07:25:32;;;;;;;4.85;2.80;;;;;;;17.08;34.25;98096.16;4975163;28;20419;-75
2023/11/28 07:27:57;;;;;;;3.95;2.58;;;;;;;16.90;33.97;98102.50;4991358;28;20031;-76
2023/11/28 07:30:23;;;;;;;4.85;2.80;;;;;;;16.77;33.61;98095.13;4973220;28;20043;-76
2023/11/28 07:32:48;;;;;;;4.55;2.60;;;;;;;16.75;33.17;98093.69;4962941;28;20057;-74
2023/11/28 07:35:14;;;;;;;4.78;2.58;;;;;;;16.68;33.04;98100.63;4991253;28;20034;-74
2023/11/28 07:37:39;;;;;;;4.45;2.53;;;;;;;16.52;32.82;98093.63;4958938;28;20045;-75
2023/11/28 07:40:08;;;;;;;3.50;2.35;;;;;;;16.24;32.60;98092.22;4971917;28;20410;-75
2023/11/28 07:42:34;;;;;;;6.47;2.30;;;;;;;15.95;33.06;98092.78;4958610;28;20047;-76
2023/11/28 07:44:59;;;;;;;4.03;2.40;;;;;;;15.64;33.15;98079.44;4939821;28;20041;-76
2023/11/28 07:47:25;;;;;;;3.72;2.40;;;;;;;15.27;33.38;98072.88;4969081;28;20050;-77
2023/11/28 07:49:51;;;;;;;7.22;2.38;;;;;;;14.90;33.72;98063.63;4959321;28;20471;-78
2023/11/28 07:52:17;;;;;;;3.63;2.35;;;;;;;14.51;34.39;98046.56;4958845;28;20482;-78
2023/11/28 07:54:43;;;;;;;6.32;2.72;;;;;;;14.25;34.69;98044.84;4974775;28;20038;-79
2023/11/28 07:57:50;;;;;;;5.68;1.92;;;;;;;13.89;35.09;98037.09;4941382;28;20118;-78
2023/11/28 08:00:16;;;;;;;5.10;2.20;;;;;;;13.60;35.27;98033.97;4955114;28;20027;-77
2023/11/28 08:02:41;;;;;;;5.22;2.30;;;;;;;13.34;35.72;98037.38;4954951;29;20066;-77
2023/11/28 08:05:07;;;;;;;4.05;2.30;;;;;;;13.14;36.23;98045.41;4954769;28;20043;-79
2023/11/28 08:07:33;;;;;;;3.50;1.95;;;;;;;12.93;36.27;98042.25;4986612;28;20030;-78
2023/11/28 08:10:00;;;;;;;5.55;2.40;;;;;;;12.73;36.61;98039.75;4988628;28;20031;-80
2023/11/28 08:12:26;;;;;;;5.15;2.40;;;;;;;12.57;36.80;98027.31;4954879;29;20081;-78
2023/11/28 08:14:52;;;;;;;4.38;2.55;;;;;;;12.41;36.92;98027.97;4954816;29;20035;-77
2023/11/28 08:17:17;;;;;;;7.15;2.22;;;;;;;12.24;37.11;98013.84;4937893;29;20102;-80
2023/11/28 08:19:43;;;;;;;4.10;2.05;;;;;;;12.11;37.36;98013.34;4955307;29;20459;-80
2023/11/28 08:22:10;;;;;;;6.35;2.50;;;;;;;11.97;37.93;98001.59;4954988;28;20094;-81
2023/11/28 08:24:35;;;;;;;4.18;2.25;;;;;;;11.85;37.95;97995.66;4938949;28;20130;-78
2023/11/28 08:27:04;;;;;;;4.15;2.20;;;;;;;11.69;38.17;97991.03;4966363;28;20042;-81
2023/11/28 08:29:32;;;;;;;5.03;1.33;;;;;;;11.64;51.38;97990.66;4975777;28;20027;-80
2023/11/28 08:32:00;;;;;;;7.97;1.73;;;;;;;11.61;51.06;97990.94;4955099;28;20044;-75
2023/11/28 08:34:25;;;;;;;;;;;;;;;11.46;47.65;97990.53;4972165;28;20125;-75
2023/11/28 08:36:51;;;;;;;7.32;2.47;;;;;;;11.32;46.81;97986.59;4957207;28;20360;-77
2023/11/28 08:39:17;;;;;;;4.47;1.55;;;;;;;11.49;57.88;97982.44;4957772;28;20034;-76
2023/11/28 08:41:43;;;;;;;6.10;1.70;;;;;;;11.50;55.37;97978.84;4971698;28;20027;-75
2023/11/28 08:44:09;;;;;;;5.85;1.98;;;;;;;11.41;53.56;97972.66;4945568;29;20082;-71
2023/11/28 08:46:37;;;;;;;12.82;1.75;;;;;;;11.27;53.36;97959.25;4973554;28;20031;-72
2023/11/28 08:49:05;;;;;;;4.18;1.33;;;;;;;11.56;60.04;97961.78;4963638;28;20101;-73
2023/11/28 08:51:31;;;;;;;5.22;1.60;;;;;;;11.58;57.83;97944.97;4951348;28;20073;-75
2023/11/28 08:53:56;;;;;;;3.00;1.90;;;;;;;11.47;56.78;97931.28;4959371;28;20106;-81
2023/11/28 08:56:23;;;;;;;4.70;1.70;;;;;;;11.35;56.46;97936.69;4957707;28;20489;-74
2023/11/28 08:58:49;;;;;;;5.82;1.90;;;;;;;11.22;56.07;97923.09;4974379;28;20086;-74
2023/11/28 09:01:14;;;;;;;4.28;1.73;;;;;;;11.07;55.26;97914.88;4973324;28;20031;-76
2023/11/28 09:03:40;;;;;;;3.30;2.28;;;;;;;10.99;55.30;97912.97;4964693;28;20043;-75
2023/11/28 09:06:07;;;;;;;3.88;2.00;;;;;;;10.85;55.42;97909.00;4981832;28;20522;-83
2023/11/28 09:08:33;;;;;;;3.38;1.45;;;;;;;11.32;62.34;97904.75;4955977;28;20081;-76
2023/11/28 09:10:58;;;;;;;3.40;1.65;;;;;;;11.45;60.67;97905.28;4969835;28;20027;-78
2023/11/28 09:13:24;;;;;;;4.88;1.60;;;;;;;11.44;58.84;97898.41;4947103;28;20414;-75
2023/11/28 09:15:49;;;;;;;2.85;1.60;;;;;;;11.36;58.15;97895.69;4956987;28;20043;-76
2023/11/28 09:18:15;;;;;;;3.10;1.85;;;;;;;11.20;57.69;97876.19;4948332;29;20192;-75
2023/11/28 09:20:40;;;;;;;9.00;2.35;;;;;;;11.15;58.83;97867.16;4960610;28;20035;-88
2023/11/28 09:23:06;;;;;;;6.68;1.85;;;;;;;11.79;61.70;97864.69;4972972;28;20073;-84
2023/11/28 09:25:31;;;;;;;5.47;1.38;;;;;;;12.19;59.60;97845.19;4962611;28;20395;-76
2023/11/28 09:27:57;;;;;;;12.27;1.60;;;;;;;12.16;59.49;97829.78;4967322;28;20042;-80
2023/11/28 09:30:23;;;;;;;9.05;1.65;;;;;;;12.24;59.64;97843.78;4923648;28;20094;-79
2023/11/28 09:32:50;;;;;;;4.63;1.55;;;;;;;12.21;59.34;97848.50;4944248;28;20019;-82
2023/11/28 09:35:16;;;;;;;4.88;1.60;;;;;;;12.49;58.96;97831.72;4964106;28;20043;-77
2023/11/28 09:37:41;;;;;;;3.80;1.75;;;;;;;12.43;58.71;97827.09;4969416;28;20090;-74
2023/11/28 09:40:07;;;;;;;7.68;1.60;;;;;;;12.28;58.28;97810.28;4973488;28;20035;-81
2023/11/28 09:42:34;;;;;;;4.05;1.52;;;;;;;12.15;58.60;97815.88;4957696;28;20026;-75
2023/11/28 09:45:03;;;;;;;3.08;1.58;;;;;;;11.99;58.61;97811.31;4957713;28;20489;-80
2023/11/28 09:47:28;;;;;;;5.85;1.80;;;;;;;11.82;58.40;97801.66;4973177;28;20046;-78
2023/11/28 09:49:55;;;;;;;7.13;2.40;;;;;;;11.66;59.67;97789.22;4970490;28;20419;-76
2023/11/28 09:52:21;;;;;;;3.90;1.92;;;;;;;11.54;59.05;97776.38;4972635;28;20038;-79
2023/11/28 09:54:46;;;;;;;7.18;1.83;;;;;;;11.85;62.12;97778.63;4987752;28;20371;-76
2023/11/28 09:57:12;;;;;;;4.20;1.65;;;;;;;11.80;61.09;97761.72;4937300;29;20117;-74
2023/11/28 09:59:38;;;;;;;2.55;1.73;;;;;;;11.68;60.34;97754.09;4937204;29;20024;-75
2023/11/28 10:02:05;;;;;;;6.15;1.80;;;;;;;11.45;59.79;97747.66;4966015;28;20391;-75
2023/11/28 10:04:34;;;;;;;6.05;1.92;;;;;;;11.25;59.58;97750.38;4972407;28;20113;-77
2023/11/28 10:07:04;;;;;;;3.58;2.15;;;;;;;11.08;59.73;97745.94;4972167;28;20031;-75
2023/11/28 10:09:31;;;;;;;10.95;2.35;;;;;;;11.01;63.54;97736.06;4973430;28;20031;-82
2023/11/28 10:12:00;;;;;;;3.67;1.58;;;;;;;11.49;66.18;97725.50;4979723;28;20133;-82
2023/11/28 10:14:25;;;;;;;3.53;1.42;;;;;;;11.79;63.91;97718.28;4957464;28;20023;-84
2023/11/28 10:16:51;;;;;;;4.70;1.92;;;;;;;11.91;62.63;97701.38;4972295;28;20041;-75
2023/11/28 10:19:17;;;;;;;4.78;1.90;;;;;;;11.74;61.66;97695.19;4972113;28;20042;-75
2023/11/28 10:21:46;;;;;;;5.38;1.80;;;;;;;11.53;61.60;97685.84;4972345;28;20066;-74
2023/11/28 10:24:12;;;;;;;7.45;1.73;;;;;;;11.43;63.43;97682.47;4972544;28;20023;-79
2023/11/28 10:26:38;;;;;;;3.40;1.60;;;;;;;11.61;63.21;97668.59;4972334;28;20062;-72
2023/11/28 10:29:07;;;;;;;6.45;1.50;;;;;;;11.49;62.27;97660.97;4956249;28;20418;-75
2023/11/28 10:31:36;;;;;;;9.57;1.88;;;;;;;11.50;63.50;97653.97;4973557;28;20113;-74
2023/11/28 10:34:02;;;;;;;4.20;1.92;;;;;;;11.42;62.82;97646.88;4956379;28;20035;-74
2023/11/28 10:36:27;;;;;;;9.73;1.73;;;;;;;11.42;63.57;97628.59;4973060;28;20117;-78
2023/11/28 10:38:53;;;;;;;4.05;1.80;;;;;;;11.38;62.73;97633.25;4972413;28;20070;-77
2023/11/28 10:41:19;;;;;;;3.15;1.88;;;;;;;11.18;62.24;97618.69;4960518;28;20054;-78
2023/11/28 10:43:45;;;;;;;3.85;1.83;;;;;;;11.07;62.21;97634.59;4960261;28;20034;-79
2023/11/28 10:46:11;;;;;;;3.17;1.90;;;;;;;10.92;62.03;97629.06;4976231;28;20506;-79
2023/11/28 10:48:38;;;;;;;5.85;2.00;;;;;;;10.79;62.36;97618.97;4959894;28;20073;-77
2023/11/28 10:51:08;;;;;;;7.43;2.30;;;;;;;10.63;62.07;97599.53;4976624;28;20038;-81
2023/11/28 10:53:34;;;;;;;6.22;2.05;;;;;;;10.56;61.98;97587.19;4975665;28;20030;-78
2023/11/28 10:56:00;;;;;;;5.53;1.95;;;;;;;10.46;61.92;97584.66;4960068;28;20097;-78
2023/11/28 10:58:26;;;;;;;3.97;1.88;;;;;;;10.39;61.87;97584.41;4959990;28;20033;-78
2023/11/28 11:00:55;;;;;;;4.53;2.30;;;;;;;10.28;62.02;97577.56;4960283;28;20129;-78
2023/11/28 11:03:22;;;;;;;3.25;2.13;;;;;;;10.19;61.93;97561.94;4975912;28;20528;-78
2023/11/28 11:05:49;;;;;;;3.00;1.70;;;;;;;10.17;61.80;97546.44;4960012;28;20549;-78
2023/11/28 11:08:15;;;;;;;4.65;2.15;;;;;;;10.14;61.71;97536.28;4959778;28;20069;-81
2023/11/28 11:10:40;;;;;;;6.25;2.38;;;;;;;10.12;61.83;97538.19;4975808;28;20034;-80
2023/11/28 11:13:31;;;;;;;4.03;2.15;;;;;;;10.09;61.73;97536.72;4943813;28;20046;-80
2023/11/28 11:16:15;;;;;;;4.13;1.73;;;;;;;10.05;61.29;97544.97;4975902;28;20035;-79
2023/11/28 11:18:41;;;;;;;4.95;1.95;;;;;;;9.94;61.71;97525.09;4977073;28;20045;-79
2023/11/28 11:21:56;;;;;;;4.40;2.00;;;;;;;9.94;61.71;97517.28;4976412;28;20026;-80
2023/11/28 11:24:21;;;;;;;3.20;2.13;;;;;;;9.88;61.80;97510.03;4995273;28;20041;-79
2023/11/28 11:26:49;;;;;;;4.40;2.30;;;;;;;9.77;62.02;97491.03;4994282;28;20200;-78
2023/11/28 11:29:20;;;;;;;5.47;1.80;;;;;;;9.98;66.15;97489.13;4993962;28;20042;-80
2023/11/28 11:31:48;;;;;;;3.67;1.83;;;;;;;10.55;65.15;97483.78;4994967;28;20134;-82
2023/11/28 11:34:41;;;;;;;16.17;2.80;;;;;;;11.09;62.70;97484.63;4994629;28;20038;-79